createdAt,value
2022-12-08T00:01:56.821Z,82.48
2022-12-08T00:04:27.444Z,83.17
2022-12-08T00:07:25.793Z,82.61
2022-12-08T00:09:54.963Z,83.12
2022-12-08T00:12:24.363Z,83.50
2022-12-08T00:14:55.007Z,82.62
2022-12-08T00:17:24.394Z,83.58
2022-12-08T00:19:54.886Z,82.81
2022-12-08T00:22:24.339Z,83.47
2022-12-08T00:24:53.434Z,83.33
2022-12-08T00:27:22.841Z,83.27
2022-12-08T00:29:51.931Z,82.63
2022-12-08T00:32:21.392Z,83.44
2022-12-08T00:34:50.584Z,83.21
2022-12-08T00:37:21.436Z,82.57
2022-12-08T00:39:50.582Z,82.63
2022-12-08T00:42:20.076Z,82.60
2022-12-08T00:44:49.154Z,82.62
2022-12-08T00:47:23.453Z,82.44
2022-12-08T00:49:53.904Z,82.35
2022-12-08T00:52:24.701Z,82.23
2022-12-08T00:54:53.804Z,83.12
2022-12-08T00:57:24.482Z,83.05
2022-12-08T00:59:53.601Z,83.12
2022-12-08T01:02:23.064Z,82.93
2022-12-08T01:04:52.550Z,83.16
2022-12-08T01:07:23.365Z,82.49
2022-12-08T01:09:52.845Z,82.65
2022-12-08T01:12:22.214Z,82.41
2022-12-08T01:14:51.356Z,82.77
2022-12-08T01:17:20.831Z,82.80
2022-12-08T01:19:49.939Z,82.79
2022-12-08T01:22:19.460Z,82.66
2022-12-08T01:24:50.021Z,82.70
2022-12-08T01:27:19.471Z,83.26
2022-12-08T01:29:48.540Z,82.21
2022-12-08T01:32:17.959Z,82.99
2022-12-08T01:34:48.084Z,82.73
2022-12-08T01:37:17.741Z,82.42
2022-12-08T01:39:46.919Z,82.32
2022-12-08T01:42:24.397Z,82.85
2022-12-08T01:45:00.524Z,82.92
2022-12-08T01:47:35.648Z,83.22
2022-12-08T01:50:07.469Z,83.14
2022-12-08T01:52:42.249Z,83.54
2022-12-08T01:55:18.039Z,83.54
2022-12-08T01:57:50.804Z,83.30
2022-12-08T02:00:22.765Z,83.36
2022-12-08T02:02:57.675Z,83.48
2022-12-08T02:05:29.369Z,83.33
2022-12-08T02:08:01.450Z,83.88
2022-12-08T02:10:32.494Z,83.68
2022-12-08T02:13:05.250Z,83.45
2022-12-08T02:15:40.191Z,83.08
2022-12-08T02:18:24.105Z,83.40
2022-12-08T02:21:03.976Z,83.38
2022-12-08T02:23:42.521Z,82.73
2022-12-08T02:26:44.687Z,82.97
2022-12-08T02:29:47.136Z,82.13
2022-12-08T02:32:43.987Z,82.34
2022-12-08T02:35:21.085Z,82.98
2022-12-08T02:38:07.512Z,82.97
2022-12-08T02:40:40.873Z,82.15
2022-12-08T02:43:16.263Z,83.17
2022-12-08T02:45:49.786Z,82.33
2022-12-08T02:48:18.948Z,82.50
2022-12-08T02:50:49.777Z,82.38
2022-12-08T02:53:18.917Z,82.85
2022-12-08T02:55:57.479Z,82.92
2022-12-08T02:58:46.726Z,82.97
2022-12-08T03:01:46.857Z,82.60
2022-12-08T03:04:24.047Z,82.51
2022-12-08T03:07:05.093Z,83.30
2022-12-08T03:09:40.594Z,82.62
2022-12-08T03:12:17.201Z,82.36
2022-12-08T03:14:51.180Z,82.83
2022-12-08T03:17:24.700Z,82.08
2022-12-08T03:19:55.782Z,82.04
2022-12-08T03:22:28.769Z,81.83
2022-12-08T03:24:58.983Z,81.87
2022-12-08T03:27:32.421Z,82.57
2022-12-08T03:30:03.236Z,82.25
2022-12-08T03:32:42.237Z,82.95
2022-12-08T03:35:15.215Z,82.23
2022-12-08T03:37:46.449Z,82.05
2022-12-08T03:40:18.568Z,82.58
2022-12-08T03:42:48.038Z,82.73
2022-12-08T03:45:17.289Z,82.07
2022-12-08T03:47:46.724Z,82.28
2022-12-08T03:50:16.081Z,82.58
2022-12-08T03:52:46.976Z,81.89
2022-12-08T03:55:16.181Z,82.49
2022-12-08T03:57:45.606Z,82.87
2022-12-08T04:00:17.925Z,83.05
2022-12-08T04:02:47.441Z,82.42
2022-12-08T04:05:16.686Z,82.75
2022-12-08T04:07:47.582Z,82.92
2022-12-08T04:10:16.713Z,82.32
2022-12-08T04:12:46.293Z,82.57
2022-12-08T04:15:15.412Z,82.98
2022-12-08T04:17:44.894Z,82.54
2022-12-08T04:20:14.220Z,82.62
2022-12-08T04:22:43.630Z,82.72
2022-12-08T04:25:14.404Z,83.03
2022-12-08T04:27:43.927Z,82.60
2022-12-08T04:30:13.680Z,83.22
2022-12-08T04:32:47.390Z,82.48
2022-12-08T04:35:17.074Z,82.98
2022-12-08T04:37:46.624Z,82.37
2022-12-08T04:40:19.493Z,82.39
2022-12-08T04:42:48.968Z,82.16
2022-12-08T04:45:18.449Z,82.40
2022-12-08T04:47:47.928Z,82.30
2022-12-08T04:50:17.205Z,82.10
2022-12-08T04:52:46.690Z,82.42
2022-12-08T04:55:17.222Z,82.34
2022-12-08T04:57:46.865Z,82.47
2022-12-08T05:00:16.966Z,82.53
2022-12-08T05:02:46.440Z,82.15
2022-12-08T05:05:15.665Z,82.77
2022-12-08T05:07:45.181Z,82.46
2022-12-08T05:10:14.351Z,82.37
2022-12-08T05:12:45.262Z,82.09
2022-12-08T05:15:14.397Z,82.12
2022-12-08T05:17:43.931Z,82.45
2022-12-08T05:20:13.821Z,82.07
2022-12-08T05:22:43.414Z,82.02
2022-12-08T05:25:12.501Z,81.95
2022-12-08T05:27:42.103Z,81.95
2022-12-08T05:30:13.020Z,82.36
2022-12-08T05:32:42.548Z,81.78
2022-12-08T05:35:12.484Z,81.88
2022-12-08T05:37:41.861Z,81.90
2022-12-08T05:40:11.530Z,81.86
2022-12-08T05:42:40.963Z,81.85
2022-12-08T05:45:12.684Z,82.50
2022-12-08T05:47:42.149Z,81.94
2022-12-08T05:50:11.805Z,82.30
2022-12-08T05:52:42.289Z,81.88
2022-12-08T05:55:12.081Z,81.42
2022-12-08T05:57:41.604Z,81.63
2022-12-08T06:00:13.102Z,82.01
2022-12-08T06:02:42.734Z,81.56
2022-12-08T06:05:11.974Z,81.21
2022-12-08T06:07:41.499Z,80.95
2022-12-08T06:10:11.220Z,81.68
2022-12-08T06:12:40.954Z,81.33
2022-12-08T06:15:10.751Z,81.22
2022-12-08T06:17:41.607Z,80.85
2022-12-08T06:20:11.053Z,80.86
2022-12-08T06:22:40.617Z,81.50
2022-12-08T06:25:10.504Z,81.37
2022-12-08T06:27:39.982Z,80.90
2022-12-08T06:30:09.933Z,81.12
2022-12-08T06:32:40.763Z,80.94
2022-12-08T06:35:10.620Z,81.02
2022-12-08T06:37:40.022Z,80.99
2022-12-08T06:40:10.022Z,81.23
2022-12-08T06:42:44.895Z,81.39
2022-12-08T06:45:14.688Z,80.96
2022-12-08T06:47:45.767Z,81.41
2022-12-08T06:50:15.489Z,81.22
2022-12-08T06:52:56.926Z,80.94
2022-12-08T06:58:22.007Z,80.68
2022-12-08T07:00:51.244Z,80.94
2022-12-08T07:03:22.285Z,81.47
2022-12-08T07:05:51.505Z,80.43
2022-12-08T07:08:21.042Z,81.00
2022-12-08T07:10:50.194Z,80.53
2022-12-08T07:13:19.604Z,80.26
2022-12-08T07:15:48.678Z,80.66
2022-12-08T07:18:18.305Z,80.62
2022-12-08T07:20:48.782Z,80.74
2022-12-08T07:23:18.216Z,80.21
2022-12-08T07:25:47.325Z,80.01
2022-12-08T07:28:16.810Z,79.85
2022-12-08T07:30:46.016Z,80.33
2022-12-08T07:33:15.530Z,80.04
2022-12-08T07:35:49.180Z,79.88
2022-12-08T07:38:20.348Z,80.26
2022-12-08T07:40:49.468Z,79.79
2022-12-08T07:43:18.897Z,80.07
2022-12-08T07:45:48.464Z,80.56
2022-12-08T07:48:18.387Z,79.70
2022-12-08T07:50:48.308Z,79.59
2022-12-08T07:53:19.118Z,80.17
2022-12-08T07:55:48.230Z,79.82
2022-12-08T07:58:17.675Z,79.50
2022-12-08T08:00:47.025Z,79.30
2022-12-08T08:03:16.684Z,79.67
2022-12-08T08:05:48.274Z,79.37
2022-12-08T08:08:19.717Z,79.53
2022-12-08T08:10:49.173Z,79.74
2022-12-08T08:13:18.684Z,79.12
2022-12-08T08:15:47.909Z,79.24
2022-12-08T08:18:17.477Z,79.38
2022-12-08T08:20:46.572Z,79.21
2022-12-08T08:23:15.984Z,78.63
2022-12-08T08:25:46.466Z,78.61
2022-12-08T08:28:15.926Z,78.61
2022-12-08T08:30:46.368Z,78.94
2022-12-08T08:33:15.985Z,79.36
2022-12-08T08:35:45.104Z,78.95
2022-12-08T08:38:14.673Z,79.39
2022-12-08T08:40:45.344Z,79.14
2022-12-08T08:43:34.366Z,79.56
2022-12-08T08:46:08.914Z,79.05
2022-12-08T08:48:38.929Z,79.81
2022-12-08T08:51:13.001Z,79.12
2022-12-08T08:53:42.719Z,78.83
2022-12-08T08:56:15.233Z,78.87
2022-12-08T08:58:44.742Z,79.15
2022-12-08T09:01:17.585Z,79.63
2022-12-08T09:03:47.060Z,79.35
2022-12-08T09:06:16.733Z,78.76
2022-12-08T09:08:47.353Z,79.54
2022-12-08T09:11:18.879Z,78.59
2022-12-08T09:13:50.460Z,79.52
2022-12-08T09:16:20.073Z,79.26
2022-12-08T09:18:49.839Z,78.84
2022-12-08T09:21:22.727Z,78.62
2022-12-08T09:23:53.722Z,78.67
2022-12-08T09:26:24.806Z,78.51
2022-12-08T09:28:55.580Z,79.04
2022-12-08T09:31:25.747Z,79.33
2022-12-08T09:33:55.290Z,79.27
2022-12-08T09:36:24.470Z,79.30
2022-12-08T09:38:54.778Z,78.67
2022-12-08T09:41:37.906Z,78.48
2022-12-08T09:44:30.802Z,78.46
2022-12-08T09:47:02.609Z,78.40
2022-12-08T09:49:40.877Z,78.73
2022-12-08T09:52:21.225Z,78.79
2022-12-08T09:54:50.952Z,78.82
2022-12-08T09:57:24.884Z,79.15
2022-12-08T09:59:58.926Z,78.51
2022-12-08T10:02:30.069Z,78.95
2022-12-08T10:05:00.964Z,78.59
2022-12-08T10:07:40.186Z,79.07
2022-12-08T10:10:21.068Z,79.03
2022-12-08T10:12:56.745Z,78.69
2022-12-08T10:15:45.587Z,78.99
2022-12-08T10:18:18.306Z,78.34
2022-12-08T10:20:51.132Z,78.38
2022-12-08T10:23:32.709Z,78.21
2022-12-08T10:26:04.431Z,78.29
2022-12-08T10:28:41.382Z,77.96
2022-12-08T10:31:18.558Z,78.36
2022-12-08T10:33:50.709Z,78.16
2022-12-08T10:36:20.209Z,78.25
2022-12-08T10:38:49.379Z,78.85
2022-12-08T10:41:19.637Z,78.33
2022-12-08T10:43:56.359Z,78.72
2022-12-08T10:46:28.182Z,78.18
2022-12-08T10:49:12.115Z,77.98
2022-12-08T10:51:43.388Z,77.90
2022-12-08T10:54:28.928Z,77.78
2022-12-08T10:56:59.184Z,78.63
2022-12-08T10:59:30.053Z,78.07
2022-12-08T11:02:01.372Z,77.90
2022-12-08T11:04:37.619Z,78.05
2022-12-08T11:07:10.961Z,77.74
2022-12-08T11:09:46.866Z,77.48
2022-12-08T11:12:17.755Z,78.30
2022-12-08T11:14:58.103Z,78.56
2022-12-08T11:17:29.823Z,77.55
2022-12-08T11:20:02.767Z,78.02
2022-12-08T11:22:35.141Z,78.68
2022-12-08T11:25:11.538Z,77.91
2022-12-08T11:27:43.509Z,77.71
2022-12-08T11:30:19.810Z,78.22
2022-12-08T11:32:52.213Z,77.92
2022-12-08T11:35:26.830Z,77.99
2022-12-08T11:38:08.119Z,78.11
2022-12-08T11:40:49.584Z,77.94
2022-12-08T11:43:23.792Z,78.20
2022-12-08T11:46:01.258Z,78.49
2022-12-08T11:48:37.240Z,77.48
2022-12-08T11:51:12.487Z,78.20
2022-12-08T11:53:49.879Z,77.54
2022-12-08T11:56:22.607Z,77.17
2022-12-08T11:58:57.591Z,77.42
2022-12-08T12:01:28.668Z,78.45
2022-12-08T12:04:08.906Z,78.43
2022-12-08T12:07:23.031Z,78.15
2022-12-08T12:10:12.973Z,78.28
2022-12-08T12:12:57.190Z,77.88
2022-12-08T12:16:02.757Z,78.02
2022-12-08T12:18:41.372Z,78.03
2022-12-08T12:21:18.457Z,79.11
2022-12-08T12:23:54.217Z,79.14
2022-12-08T12:26:26.040Z,78.52
2022-12-08T12:29:01.184Z,78.19
2022-12-08T12:31:34.786Z,79.10
2022-12-08T12:34:12.305Z,79.18
2022-12-08T12:36:53.703Z,79.27
2022-12-08T12:39:26.333Z,78.84
2022-12-08T12:41:58.949Z,78.93
2022-12-08T12:44:43.545Z,79.71
2022-12-08T12:47:15.937Z,79.36
2022-12-08T12:50:08.109Z,80.21
2022-12-08T12:52:48.627Z,79.30
2022-12-08T12:55:46.228Z,79.52
2022-12-08T12:58:31.437Z,79.64
2022-12-08T13:01:30.223Z,79.72
2022-12-08T13:04:08.221Z,79.10
2022-12-08T13:06:43.043Z,79.33
2022-12-08T13:09:24.353Z,80.09
2022-12-08T13:11:55.775Z,79.72
2022-12-08T13:14:30.291Z,79.85
2022-12-08T13:17:02.479Z,79.68
2022-12-08T13:19:34.569Z,80.00
2022-12-08T13:22:05.213Z,79.91
2022-12-08T13:24:36.730Z,80.54
2022-12-08T13:27:35.547Z,80.00
2022-12-08T13:30:43.692Z,80.26
2022-12-08T13:33:18.508Z,79.61
2022-12-08T13:36:02.099Z,79.69
2022-12-08T13:38:36.726Z,79.80
2022-12-08T13:41:14.903Z,79.73
2022-12-08T13:44:10.622Z,80.33
2022-12-08T13:58:25.471Z,80.21
2022-12-08T14:01:03.439Z,80.31
2022-12-08T14:04:04.366Z,80.13
2022-12-08T14:06:39.003Z,80.50
2022-12-08T14:09:12.965Z,80.12
2022-12-08T14:11:47.930Z,80.23
2022-12-08T14:14:45.795Z,80.42
2022-12-08T14:17:13.267Z,80.25
2022-12-08T14:19:45.867Z,80.36
2022-12-08T14:22:17.471Z,80.51
2022-12-08T14:24:48.296Z,80.35
2022-12-08T14:27:21.700Z,80.51
2022-12-08T14:29:52.976Z,80.37
2022-12-08T14:32:25.383Z,81.03
2022-12-08T14:34:57.482Z,81.19
2022-12-08T14:37:29.208Z,81.39
2022-12-08T14:40:05.901Z,81.21
2022-12-08T14:42:45.658Z,80.47
2022-12-08T14:45:17.847Z,81.34
2022-12-08T14:47:48.603Z,81.17
2022-12-08T14:50:46.149Z,81.38
2022-12-08T14:53:18.186Z,80.85
2022-12-08T14:55:49.632Z,80.14
2022-12-08T14:58:27.838Z,80.00
2022-12-08T15:01:00.972Z,79.95
2022-12-08T15:03:32.399Z,80.33
2022-12-08T15:06:09.436Z,80.07
2022-12-08T15:08:54.431Z,79.59
2022-12-08T15:11:36.605Z,79.32
2022-12-08T15:14:45.412Z,79.70
2022-12-08T15:17:35.723Z,80.44
2022-12-08T15:20:06.094Z,79.98
2022-12-08T15:22:35.709Z,80.36
2022-12-08T15:25:04.985Z,80.27
2022-12-08T15:27:49.553Z,80.74
2022-12-08T15:30:21.522Z,80.75
2022-12-08T15:32:52.751Z,80.61
2022-12-08T15:35:22.561Z,80.78
2022-12-08T15:37:52.093Z,80.53
2022-12-08T15:40:23.347Z,80.22
2022-12-08T15:42:52.729Z,80.83
2022-12-08T15:45:27.747Z,80.30
2022-12-08T15:47:57.210Z,80.61
2022-12-08T15:50:26.817Z,81.19
2022-12-08T15:52:58.175Z,81.10
2022-12-08T15:55:28.023Z,81.52
2022-12-08T16:00:53.048Z,81.21
2022-12-08T16:04:13.939Z,81.14
2022-12-08T16:07:04.814Z,81.45
2022-12-08T16:09:15.935Z,80.58
2022-12-08T16:12:07.755Z,81.15
2022-12-08T16:17:30.112Z,81.53
2022-12-08T16:20:24.261Z,81.05
2022-12-08T16:23:13.032Z,81.42
2022-12-08T16:26:17.155Z,81.89
2022-12-08T16:28:54.447Z,80.54
2022-12-08T16:31:24.249Z,81.17
2022-12-08T16:33:54.655Z,81.21
2022-12-08T16:36:24.030Z,80.90
2022-12-08T16:38:53.114Z,80.48
2022-12-08T16:41:40.056Z,81.11
2022-12-08T16:44:09.570Z,81.73
2022-12-08T16:46:39.267Z,81.75
2022-12-08T16:49:10.592Z,81.27
2022-12-08T16:51:40.222Z,81.71
2022-12-08T16:54:12.599Z,81.47
2022-12-08T16:56:41.997Z,81.51
2022-12-08T16:59:11.103Z,81.14
2022-12-08T17:01:40.628Z,81.58
2022-12-08T17:04:31.143Z,81.31
2022-12-08T17:07:01.482Z,80.98
2022-12-08T17:09:31.938Z,81.11
2022-12-08T17:12:03.928Z,80.97
2022-12-08T17:14:35.672Z,81.15
2022-12-08T17:17:05.215Z,81.44
2022-12-08T17:19:36.430Z,81.35
2022-12-08T17:22:05.968Z,80.98
2022-12-08T17:24:35.575Z,80.88
2022-12-08T17:27:06.753Z,80.99
2022-12-08T17:29:36.135Z,80.88
2022-12-08T17:32:05.843Z,80.99
2022-12-08T17:34:36.477Z,81.22
2022-12-08T17:37:06.060Z,81.41
2022-12-08T17:39:35.159Z,80.87
2022-12-08T17:42:04.721Z,81.65
2022-12-08T17:44:34.210Z,81.70
2022-12-08T17:47:04.993Z,81.05
2022-12-08T17:49:35.819Z,81.40
2022-12-08T17:52:07.330Z,81.33
2022-12-08T17:54:36.926Z,81.31
2022-12-08T17:57:06.498Z,81.59
2022-12-08T17:59:35.543Z,81.46
2022-12-08T18:02:05.401Z,80.76
2022-12-08T18:04:35.947Z,80.92
2022-12-08T18:07:05.335Z,81.81
2022-12-08T18:09:34.829Z,81.82
2022-12-08T18:12:04.822Z,81.54
2022-12-08T18:14:34.036Z,81.43
2022-12-08T18:17:03.659Z,81.89
2022-12-08T18:19:32.841Z,81.30
2022-12-08T18:22:03.697Z,81.10
2022-12-08T18:24:32.804Z,81.62
2022-12-08T18:27:02.148Z,81.65
2022-12-08T18:29:31.287Z,82.45
2022-12-08T18:32:00.638Z,82.31
2022-12-08T18:34:29.639Z,81.76
2022-12-08T18:36:59.365Z,81.90
2022-12-08T18:39:32.655Z,81.98
2022-12-08T18:42:22.726Z,81.45
2022-12-08T18:44:52.944Z,81.32
2022-12-08T18:47:22.331Z,81.45
2022-12-08T18:49:51.344Z,81.64
2022-12-08T18:52:28.243Z,81.18
2022-12-08T18:55:08.820Z,81.71
2022-12-08T18:57:39.932Z,81.50
2022-12-08T19:00:11.594Z,82.03
2022-12-08T19:02:41.569Z,81.89
2022-12-08T19:05:12.628Z,81.87
2022-12-08T19:07:43.705Z,82.05
2022-12-08T19:10:14.603Z,81.78
2022-12-08T19:12:43.918Z,81.68
2022-12-08T19:15:13.463Z,81.71
2022-12-08T19:17:42.918Z,81.22
2022-12-08T19:20:12.970Z,81.25
2022-12-08T19:22:42.162Z,81.57
2022-12-08T19:25:11.447Z,82.09
2022-12-08T19:27:42.234Z,82.05
2022-12-08T19:30:12.825Z,81.38
2022-12-08T19:32:42.224Z,81.75
2022-12-08T19:35:11.602Z,81.50
2022-12-08T19:37:41.008Z,81.61
2022-12-08T19:40:31.014Z,81.58
2022-12-08T19:43:19.142Z,81.67
2022-12-08T19:45:48.266Z,81.51
2022-12-08T19:48:17.740Z,81.43
2022-12-08T19:50:46.783Z,81.44
2022-12-08T19:53:16.938Z,81.71
2022-12-08T19:55:46.378Z,81.46
2022-12-08T19:58:17.312Z,81.56
2022-12-08T20:00:46.942Z,81.20
2022-12-08T20:03:17.712Z,80.98
2022-12-08T20:05:49.439Z,81.10
2022-12-08T20:08:18.969Z,81.61
2022-12-08T20:10:48.246Z,81.48
2022-12-08T20:13:36.273Z,81.48
2022-12-08T20:16:06.124Z,81.93
2022-12-08T20:18:36.670Z,81.99
2022-12-08T20:21:06.496Z,81.41
2022-12-08T20:23:37.136Z,81.47
2022-12-08T20:26:11.329Z,80.90
2022-12-08T20:28:42.037Z,81.76
2022-12-08T20:31:19.100Z,81.40
2022-12-08T20:33:49.161Z,81.13
2022-12-08T20:36:19.950Z,81.10
2022-12-08T20:38:51.012Z,80.55
2022-12-08T20:41:21.111Z,81.33
2022-12-08T20:43:51.989Z,80.47
2022-12-08T20:46:21.884Z,81.25
2022-12-08T20:48:51.640Z,81.93
2022-12-08T20:51:23.766Z,81.31
2022-12-08T20:53:57.747Z,81.11
2022-12-08T20:56:27.977Z,81.64
2022-12-08T20:59:00.811Z,81.44
2022-12-08T21:01:30.369Z,81.31
2022-12-08T21:04:00.691Z,81.50
2022-12-08T21:06:29.966Z,82.06
2022-12-08T21:08:59.550Z,81.77
2022-12-08T21:11:28.938Z,81.06
2022-12-08T21:14:00.356Z,81.62
2022-12-08T21:16:29.852Z,81.42
2022-12-08T21:18:59.476Z,81.63
2022-12-08T21:21:28.630Z,81.04
2022-12-08T21:23:58.035Z,80.72
2022-12-08T21:26:27.424Z,81.06
2022-12-08T21:28:59.949Z,81.12
2022-12-08T21:31:31.754Z,81.20
2022-12-08T21:34:02.291Z,81.88
2022-12-08T21:36:32.075Z,81.44
2022-12-08T21:39:02.825Z,82.13
2022-12-08T21:41:49.988Z,81.33
2022-12-08T21:44:20.925Z,82.17
2022-12-08T21:46:50.695Z,81.21
2022-12-08T21:49:20.518Z,81.59
2022-12-08T21:51:49.733Z,81.67
2022-12-08T21:54:19.639Z,81.31
2022-12-08T21:56:50.449Z,81.08
2022-12-08T21:59:21.906Z,81.88
2022-12-08T22:01:51.361Z,81.21
2022-12-08T22:04:22.429Z,81.45
2022-12-08T22:06:52.687Z,80.95
2022-12-08T22:09:22.257Z,81.30
2022-12-08T22:11:51.754Z,82.03
2022-12-08T22:14:22.532Z,82.00
2022-12-08T22:16:51.677Z,81.25
2022-12-08T22:19:21.217Z,81.04
2022-12-08T22:21:50.390Z,80.97
2022-12-08T22:24:19.839Z,80.91
2022-12-08T22:26:49.106Z,81.64
2022-12-08T22:29:18.716Z,81.29
2022-12-08T22:31:49.463Z,80.95
2022-12-08T22:34:19.045Z,81.84
2022-12-08T22:36:49.032Z,81.54
2022-12-08T22:39:18.445Z,81.25
2022-12-08T22:41:47.557Z,81.66
2022-12-08T22:44:17.419Z,82.11
2022-12-08T22:46:48.124Z,80.44
2022-12-08T22:49:18.636Z,80.66
2022-12-08T22:51:47.894Z,79.94
2022-12-08T22:54:17.347Z,81.14
2022-12-08T22:56:46.412Z,81.46
2022-12-08T22:59:15.776Z,81.13
2022-12-08T23:01:44.897Z,81.85
2022-12-08T23:04:17.926Z,80.98
2022-12-08T23:06:47.783Z,80.39
2022-12-08T23:09:17.234Z,81.28
2022-12-08T23:11:46.331Z,81.62
2022-12-08T23:14:16.047Z,81.04
2022-12-08T23:16:45.426Z,80.84
2022-12-08T23:19:16.293Z,80.67
2022-12-08T23:21:45.360Z,81.43
2022-12-08T23:24:14.810Z,81.07
2022-12-08T23:26:44.005Z,80.83
2022-12-08T23:29:13.490Z,81.01
2022-12-08T23:31:42.770Z,80.57
2022-12-08T23:34:12.583Z,80.77
2022-12-08T23:36:43.332Z,80.21
2022-12-08T23:39:12.931Z,80.57
2022-12-08T23:41:42.269Z,80.78
2022-12-08T23:44:12.451Z,81.20
2022-12-08T23:46:41.694Z,81.52
2022-12-08T23:49:11.157Z,81.82
2022-12-08T23:51:40.235Z,82.25
2022-12-08T23:54:11.133Z,82.66
2022-12-08T23:56:40.258Z,83.20
2022-12-08T23:59:09.651Z,83.79
